createdAt,value
2022-08-12T00:00:57.520Z,1.60
2022-08-12T00:02:03.198Z,1.60
2022-08-12T00:02:58.560Z,1.40
2022-08-12T00:03:57.485Z,1.60
2022-08-12T00:04:57.472Z,1.50
2022-08-12T00:06:04.665Z,1.70
2022-08-12T00:06:58.473Z,1.80
2022-08-12T00:07:57.437Z,1.60
2022-08-12T00:08:57.517Z,1.60
2022-08-12T00:09:57.416Z,1.60
2022-08-12T00:10:57.405Z,1.50
2022-08-12T00:11:57.392Z,1.70
2022-08-12T00:12:57.382Z,1.60
2022-08-12T00:13:57.373Z,1.30
2022-08-12T00:14:57.362Z,1.70
2022-08-12T00:15:57.351Z,1.60
2022-08-12T00:16:57.345Z,1.70
2022-08-12T00:17:57.328Z,1.80
2022-08-12T00:18:57.320Z,1.50
2022-08-12T00:19:57.308Z,1.60
2022-08-12T00:20:57.298Z,1.70
2022-08-12T00:21:57.286Z,1.90
2022-08-12T00:22:59.565Z,1.60
2022-08-12T00:23:57.314Z,1.50
2022-08-12T00:24:57.258Z,1.90
2022-08-12T00:26:21.474Z,1.60
2022-08-12T00:26:57.233Z,1.40
2022-08-12T00:27:57.222Z,1.80
2022-08-12T00:28:57.213Z,1.60
2022-08-12T00:29:57.220Z,1.50
2022-08-12T00:30:57.196Z,1.60
2022-08-12T00:31:57.178Z,1.60
2022-08-12T00:32:57.382Z,1.70
2022-08-12T00:33:57.157Z,1.70
2022-08-12T00:34:57.147Z,1.50
2022-08-12T00:35:57.135Z,1.50
2022-08-12T00:37:00.945Z,1.50
2022-08-12T00:37:58.140Z,1.70
2022-08-12T00:38:57.103Z,1.60
2022-08-12T00:39:57.175Z,1.60
2022-08-12T00:40:57.084Z,1.60
2022-08-12T00:41:57.071Z,1.60
2022-08-12T00:42:57.062Z,1.30
2022-08-12T00:43:57.049Z,1.60
2022-08-12T00:44:57.040Z,1.90
2022-08-12T00:45:57.025Z,1.80
2022-08-12T00:46:57.015Z,1.70
2022-08-12T00:47:57.004Z,1.60
2022-08-12T00:48:57.010Z,1.50
2022-08-12T00:49:56.982Z,1.50
2022-08-12T00:50:56.975Z,1.80
2022-08-12T00:51:56.960Z,1.60
2022-08-12T00:52:56.950Z,1.70
2022-08-12T00:53:56.938Z,1.90
2022-08-12T00:54:57.357Z,1.60
2022-08-12T00:55:56.914Z,1.70
2022-08-12T00:56:56.906Z,1.80
2022-08-12T00:57:56.894Z,1.50
2022-08-12T00:58:56.883Z,1.40
2022-08-12T00:59:56.870Z,1.70
2022-08-12T01:00:56.905Z,1.50
2022-08-12T01:02:02.058Z,1.50
2022-08-12T01:02:57.863Z,1.70
2022-08-12T01:03:56.827Z,1.70
2022-08-12T01:04:56.816Z,1.90
2022-08-12T01:05:56.803Z,1.80
2022-08-12T01:06:56.795Z,1.80
2022-08-12T01:07:56.783Z,2.00
2022-08-12T01:08:56.770Z,1.80
2022-08-12T01:09:56.763Z,1.90
2022-08-12T01:10:56.749Z,1.60
2022-08-12T01:11:56.736Z,1.60
2022-08-12T01:13:18.336Z,1.70
2022-08-12T01:13:56.713Z,1.90
2022-08-12T01:14:56.705Z,1.80
2022-08-12T01:15:56.690Z,1.70
2022-08-12T01:16:56.683Z,1.80
2022-08-12T01:17:56.675Z,1.60
2022-08-12T01:18:56.664Z,1.70
2022-08-12T01:19:56.648Z,1.70
2022-08-12T01:20:56.635Z,1.70
2022-08-12T01:21:56.623Z,1.60
2022-08-12T01:22:56.614Z,1.80
2022-08-12T01:23:56.602Z,1.60
2022-08-12T01:24:56.590Z,1.50
2022-08-12T01:25:56.673Z,2.20
2022-08-12T01:26:56.568Z,1.90
2022-08-12T01:27:56.558Z,1.80
2022-08-12T01:28:57.034Z,1.80
2022-08-12T01:29:56.532Z,2.20
2022-08-12T01:30:56.523Z,1.80
2022-08-12T01:31:56.513Z,1.80
2022-08-12T01:32:56.499Z,1.70
2022-08-12T01:33:56.490Z,1.70
2022-08-12T01:34:56.478Z,1.50
2022-08-12T01:36:07.895Z,2.80
2022-08-12T01:36:56.455Z,1.90
2022-08-12T01:37:56.442Z,1.70
2022-08-12T01:38:56.434Z,1.70
2022-08-12T01:40:35.011Z,1.90
2022-08-12T01:40:57.530Z,1.80
2022-08-12T01:41:56.399Z,1.90
2022-08-12T01:42:56.390Z,1.50
2022-08-12T01:43:56.377Z,1.90
2022-08-12T01:44:56.365Z,1.80
2022-08-12T01:45:57.702Z,1.60
2022-08-12T01:46:56.343Z,2.00
2022-08-12T01:47:56.333Z,1.70
2022-08-12T01:48:56.323Z,2.00
2022-08-12T01:49:56.309Z,1.90
2022-08-12T01:51:00.356Z,2.70
2022-08-12T01:52:21.188Z,1.80
2022-08-12T01:52:56.277Z,1.60
2022-08-12T01:53:56.272Z,1.90
2022-08-12T01:54:56.256Z,1.80
2022-08-12T01:55:56.243Z,1.70
2022-08-12T01:56:56.235Z,1.80
2022-08-12T01:57:59.776Z,1.80
2022-08-12T01:58:56.210Z,1.70
2022-08-12T01:59:56.197Z,1.70
2022-08-12T02:00:56.401Z,1.80
2022-08-12T02:01:56.297Z,2.00
2022-08-12T02:02:56.177Z,2.20
2022-08-12T02:03:56.159Z,1.90
2022-08-12T02:04:56.143Z,2.10
2022-08-12T02:05:56.130Z,2.50
2022-08-12T02:06:56.126Z,1.90
2022-08-12T02:07:56.107Z,1.90
2022-08-12T02:08:56.100Z,2.00
2022-08-12T02:09:56.086Z,2.00
2022-08-12T02:10:56.075Z,1.80
2022-08-12T02:11:56.063Z,1.90
2022-08-12T02:12:56.056Z,1.90
2022-08-12T02:13:56.046Z,1.90
2022-08-12T02:14:56.031Z,2.10
2022-08-12T02:15:56.017Z,1.70
2022-08-12T02:16:56.013Z,1.80
2022-08-12T02:17:56.930Z,1.90
2022-08-12T02:18:55.986Z,2.10
2022-08-12T02:19:55.981Z,1.90
2022-08-12T02:20:55.965Z,2.20
2022-08-12T02:21:55.952Z,1.90
2022-08-12T02:22:55.943Z,2.00
2022-08-12T02:23:55.933Z,2.00
2022-08-12T02:24:55.919Z,1.90
2022-08-12T02:25:55.909Z,2.10
2022-08-12T02:26:55.898Z,1.80
2022-08-12T02:27:55.885Z,1.80
2022-08-12T02:28:55.877Z,1.80
2022-08-12T02:29:55.862Z,2.10
2022-08-12T02:30:55.855Z,2.10
2022-08-12T02:31:55.843Z,2.20
2022-08-12T02:32:56.320Z,2.10
2022-08-12T02:33:55.820Z,2.00
2022-08-12T02:34:55.815Z,2.40
2022-08-12T02:35:55.800Z,1.80
2022-08-12T02:36:55.790Z,2.10
2022-08-12T02:37:55.778Z,2.10
2022-08-12T02:38:55.765Z,1.80
2022-08-12T02:39:55.864Z,2.10
2022-08-12T02:40:55.749Z,1.90
2022-08-12T02:41:55.732Z,2.00
2022-08-12T02:42:55.722Z,2.20
2022-08-12T02:43:55.707Z,2.10
2022-08-12T02:44:55.701Z,1.90
2022-08-12T02:45:55.686Z,1.90
2022-08-12T02:46:55.677Z,2.10
2022-08-12T02:48:00.903Z,2.30
2022-08-12T02:48:55.658Z,2.00
2022-08-12T02:49:55.645Z,1.90
2022-08-12T02:50:55.633Z,2.30
2022-08-12T02:51:55.618Z,2.20
2022-08-12T02:52:55.611Z,2.10
2022-08-12T02:54:03.262Z,2.20
2022-08-12T02:54:55.586Z,2.10
2022-08-12T02:55:55.578Z,1.70
2022-08-12T02:56:55.569Z,2.40
2022-08-12T02:57:55.553Z,1.70
2022-08-12T02:58:55.552Z,1.90
2022-08-12T02:59:55.534Z,1.90
2022-08-12T03:00:55.559Z,2.50
2022-08-12T03:01:55.508Z,2.00
2022-08-12T03:02:55.498Z,2.70
2022-08-12T03:03:55.486Z,1.90
2022-08-12T03:04:55.475Z,1.80
2022-08-12T03:05:55.466Z,2.20
2022-08-12T03:06:55.452Z,2.50
2022-08-12T03:07:59.126Z,2.10
2022-08-12T03:08:55.429Z,2.00
2022-08-12T03:10:04.249Z,2.00
2022-08-12T03:10:55.408Z,2.20
2022-08-12T03:11:55.394Z,2.40
2022-08-12T03:12:55.383Z,2.10
2022-08-12T03:13:55.374Z,2.20
2022-08-12T03:14:55.362Z,2.10
2022-08-12T03:15:55.352Z,2.20
2022-08-12T03:16:55.338Z,2.10
2022-08-12T03:18:25.756Z,2.10
2022-08-12T03:18:56.341Z,2.30
2022-08-12T03:20:09.409Z,2.20
2022-08-12T03:20:55.294Z,2.20
2022-08-12T03:22:08.639Z,1.90
2022-08-12T03:22:55.268Z,2.10
2022-08-12T03:23:55.259Z,2.30
2022-08-12T03:24:55.249Z,2.40
2022-08-12T03:25:55.240Z,2.20
2022-08-12T03:26:55.225Z,2.40
2022-08-12T03:27:55.216Z,1.90
2022-08-12T03:28:55.205Z,2.60
2022-08-12T03:29:55.192Z,2.10
2022-08-12T03:30:56.848Z,2.20
2022-08-12T03:31:55.167Z,2.20
2022-08-12T03:32:55.155Z,2.30
2022-08-12T03:34:00.511Z,2.60
2022-08-12T03:34:55.131Z,2.50
2022-08-12T03:35:55.125Z,2.40
2022-08-12T03:36:55.307Z,2.50
2022-08-12T03:37:55.097Z,2.40
2022-08-12T03:38:55.085Z,2.20
2022-08-12T03:39:55.172Z,2.40
2022-08-12T03:40:55.060Z,2.20
2022-08-12T03:41:55.054Z,2.50
2022-08-12T03:42:55.041Z,2.40
2022-08-12T03:43:55.029Z,2.20
2022-08-12T03:44:55.017Z,2.40
2022-08-12T03:45:55.005Z,2.30
2022-08-12T03:46:54.995Z,2.40
2022-08-12T03:47:54.984Z,2.80
2022-08-12T03:48:54.968Z,2.40
2022-08-12T03:49:54.964Z,2.60
2022-08-12T03:50:54.947Z,2.50
2022-08-12T03:51:54.935Z,2.50
2022-08-12T03:52:54.922Z,2.30
2022-08-12T03:53:54.914Z,2.40
2022-08-12T03:54:54.899Z,2.30
2022-08-12T03:55:54.889Z,2.20
2022-08-12T03:56:54.908Z,1.90
2022-08-12T03:57:54.877Z,2.30
2022-08-12T03:58:54.884Z,2.60
2022-08-12T03:59:54.961Z,2.40
2022-08-12T04:00:55.032Z,2.20
2022-08-12T04:01:54.926Z,2.30
2022-08-12T04:02:54.957Z,2.50
2022-08-12T04:03:54.844Z,2.30
2022-08-12T04:04:54.786Z,2.80
2022-08-12T04:05:56.381Z,2.50
2022-08-12T04:06:54.763Z,2.60
2022-08-12T04:07:58.370Z,2.40
2022-08-12T04:08:54.748Z,2.20
2022-08-12T04:09:54.736Z,2.40
2022-08-12T04:10:54.720Z,3.40
2022-08-12T04:11:54.711Z,2.60
2022-08-12T04:12:54.702Z,2.40
2022-08-12T04:13:54.690Z,2.50
2022-08-12T04:14:54.677Z,2.60
2022-08-12T04:15:54.673Z,2.30
2022-08-12T04:16:54.656Z,2.50
2022-08-12T04:18:06.627Z,2.50
2022-08-12T04:18:54.633Z,3.00
2022-08-12T04:19:54.726Z,2.40
2022-08-12T04:20:54.617Z,2.50
2022-08-12T04:22:01.989Z,2.20
2022-08-12T04:22:54.589Z,2.50
2022-08-12T04:23:54.581Z,2.30
2022-08-12T04:24:54.572Z,2.50
2022-08-12T04:25:54.559Z,2.20
2022-08-12T04:26:54.546Z,2.80
2022-08-12T04:27:54.538Z,2.50
2022-08-12T04:28:54.528Z,2.60
2022-08-12T04:30:30.842Z,2.60
2022-08-12T04:30:54.503Z,2.80
2022-08-12T04:31:54.495Z,2.40
2022-08-12T04:32:54.481Z,2.40
2022-08-12T04:33:54.512Z,2.20
2022-08-12T04:34:54.459Z,2.40
2022-08-12T04:35:54.449Z,2.40
2022-08-12T04:36:54.439Z,2.60
2022-08-12T04:37:58.983Z,2.70
2022-08-12T04:38:59.525Z,2.80
2022-08-12T04:39:54.551Z,3.00
2022-08-12T04:40:54.394Z,2.80
2022-08-12T04:41:58.546Z,2.80
2022-08-12T04:42:54.377Z,2.60
2022-08-12T04:44:02.263Z,2.60
2022-08-12T04:44:55.374Z,2.60
2022-08-12T04:45:54.345Z,2.60
2022-08-12T04:46:54.326Z,2.50
2022-08-12T04:47:54.317Z,2.40
2022-08-12T04:48:54.306Z,2.60
2022-08-12T04:49:54.297Z,2.60
2022-08-12T04:50:54.280Z,2.80
2022-08-12T04:51:59.058Z,2.40
2022-08-12T04:52:54.258Z,2.40
2022-08-12T04:53:54.258Z,2.90
2022-08-12T04:54:54.238Z,2.90
2022-08-12T04:55:54.237Z,2.90
2022-08-12T04:57:03.701Z,2.80
2022-08-12T04:57:54.241Z,2.50
2022-08-12T04:58:54.193Z,2.60
2022-08-12T04:59:54.194Z,2.60
2022-08-12T05:00:54.174Z,2.50
2022-08-12T05:01:54.285Z,2.60
2022-08-12T05:02:54.283Z,2.50
2022-08-12T05:03:54.172Z,2.80
2022-08-12T05:04:54.118Z,2.80
2022-08-12T05:05:54.120Z,2.30
2022-08-12T05:06:54.114Z,2.70
2022-08-12T05:07:55.120Z,2.60
2022-08-12T05:08:54.124Z,2.30
2022-08-12T05:10:00.586Z,2.60
2022-08-12T05:10:55.075Z,2.50
2022-08-12T05:11:54.623Z,2.60
2022-08-12T05:12:54.032Z,2.60
2022-08-12T05:13:54.016Z,2.40
2022-08-12T05:14:54.004Z,2.60
2022-08-12T05:16:03.800Z,2.60
2022-08-12T05:16:53.984Z,2.40
2022-08-12T05:17:53.976Z,2.70
2022-08-12T05:18:53.960Z,2.30
2022-08-12T05:19:54.008Z,2.30
2022-08-12T05:20:53.942Z,2.20
2022-08-12T05:21:53.927Z,2.30
2022-08-12T05:22:58.168Z,2.10
2022-08-12T05:23:53.905Z,2.10
2022-08-12T05:24:53.900Z,2.30
2022-08-12T05:25:53.883Z,2.20
2022-08-12T05:26:53.869Z,2.30
2022-08-12T05:27:55.543Z,2.10
2022-08-12T05:28:53.853Z,2.30
2022-08-12T05:30:05.361Z,2.20
2022-08-12T05:30:54.850Z,2.10
2022-08-12T05:31:53.915Z,1.90
2022-08-12T05:32:53.921Z,2.10
2022-08-12T05:33:53.837Z,2.10
2022-08-12T05:34:53.791Z,1.90
2022-08-12T05:35:53.767Z,1.30
2022-08-12T05:36:53.756Z,1.90
2022-08-12T05:37:53.749Z,2.10
2022-08-12T05:38:53.742Z,2.00
2022-08-12T05:39:53.799Z,2.00
2022-08-12T05:40:53.713Z,1.90
2022-08-12T05:41:53.704Z,2.00
2022-08-12T05:42:53.690Z,2.10
2022-08-12T05:43:53.683Z,1.80
2022-08-12T05:44:53.701Z,2.20
2022-08-12T05:45:53.743Z,2.10
2022-08-12T05:46:53.647Z,2.00
2022-08-12T05:47:54.389Z,2.10
2022-08-12T05:48:53.625Z,1.80
2022-08-12T05:49:53.618Z,2.10
2022-08-12T05:50:53.601Z,1.80
2022-08-12T05:51:53.592Z,2.00
2022-08-12T05:52:53.984Z,2.40
2022-08-12T05:53:53.569Z,2.00
2022-08-12T05:54:57.450Z,2.00
2022-08-12T05:55:53.618Z,2.10
2022-08-12T05:56:53.563Z,2.00
2022-08-12T05:57:53.529Z,1.90
2022-08-12T05:58:53.520Z,1.90
2022-08-12T05:59:53.508Z,1.90
2022-08-12T06:00:53.489Z,2.10
2022-08-12T06:02:12.057Z,2.10
2022-08-12T06:02:53.538Z,2.00
2022-08-12T06:03:53.457Z,2.00
2022-08-12T06:04:53.446Z,1.80
2022-08-12T06:05:55.294Z,2.00
2022-08-12T06:06:53.766Z,1.90
2022-08-12T06:08:01.836Z,2.00
2022-08-12T06:08:53.402Z,2.00
2022-08-12T06:09:53.395Z,1.90
2022-08-12T06:10:53.382Z,1.90
2022-08-12T06:12:04.117Z,2.10
2022-08-12T06:12:53.360Z,2.40
2022-08-12T06:13:54.670Z,1.90
2022-08-12T06:14:53.340Z,2.20
2022-08-12T06:15:53.330Z,2.00
2022-08-12T06:16:53.350Z,2.20
2022-08-12T06:17:53.343Z,2.00
2022-08-12T06:18:53.291Z,2.00
2022-08-12T06:20:27.945Z,2.30
2022-08-12T06:20:53.895Z,2.10
2022-08-12T06:21:53.259Z,2.40
2022-08-12T06:22:55.058Z,2.10
2022-08-12T06:23:53.240Z,2.20
2022-08-12T06:24:53.232Z,2.10
2022-08-12T06:25:53.217Z,2.00
2022-08-12T06:26:53.203Z,2.00
2022-08-12T06:28:07.456Z,1.90
2022-08-12T06:28:54.208Z,2.00
2022-08-12T06:30:09.766Z,1.90
2022-08-12T06:31:53.155Z,2.10
2022-08-12T06:33:11.480Z,2.00
2022-08-12T06:33:55.225Z,2.00
2022-08-12T06:35:26.843Z,1.90
2022-08-12T06:35:57.619Z,2.10
2022-08-12T06:36:53.097Z,2.30
2022-08-12T06:37:57.058Z,2.00
2022-08-12T06:38:53.093Z,1.70
2022-08-12T06:39:53.089Z,2.10
2022-08-12T06:40:53.046Z,2.30
2022-08-12T06:42:27.712Z,1.80
2022-08-12T06:42:53.027Z,1.80
2022-08-12T06:44:05.102Z,1.80
2022-08-12T06:44:53.006Z,2.00
2022-08-12T06:45:52.995Z,1.90
2022-08-12T06:46:52.989Z,1.90
2022-08-12T06:47:52.981Z,2.40
2022-08-12T06:48:53.031Z,2.00
2022-08-12T06:49:54.270Z,2.10
2022-08-12T06:50:52.939Z,2.10
2022-08-12T06:51:56.944Z,2.00
2022-08-12T06:52:52.917Z,2.10
2022-08-12T06:53:52.909Z,2.10
2022-08-12T06:54:52.891Z,1.90
2022-08-12T06:55:56.788Z,2.40
2022-08-12T06:58:04.421Z,2.10
2022-08-12T06:58:05.629Z,2.20
2022-08-12T06:58:52.868Z,2.00
2022-08-12T06:59:52.871Z,1.80
2022-08-12T07:00:52.885Z,2.00
2022-08-12T07:01:52.821Z,1.90
2022-08-12T07:02:52.806Z,2.10
2022-08-12T07:03:52.796Z,2.40
2022-08-12T07:04:52.800Z,2.00
2022-08-12T07:05:52.776Z,2.20
2022-08-12T07:06:52.764Z,2.10
2022-08-12T07:07:52.753Z,2.30
2022-08-12T07:08:52.741Z,2.10
2022-08-12T07:10:05.528Z,2.00
2022-08-12T07:10:52.745Z,2.00
2022-08-12T07:11:52.732Z,1.90
2022-08-12T07:12:52.697Z,2.20
2022-08-12T07:14:11.953Z,1.70
2022-08-12T07:14:52.678Z,1.90
2022-08-12T07:15:52.681Z,2.10
2022-08-12T07:16:52.655Z,1.90
2022-08-12T07:17:52.644Z,2.30
2022-08-12T07:18:52.633Z,2.10
2022-08-12T07:19:52.693Z,2.10
2022-08-12T07:20:53.512Z,2.30
2022-08-12T07:21:59.849Z,2.00
2022-08-12T07:22:52.592Z,2.40
2022-08-12T07:23:52.582Z,2.10
2022-08-12T07:24:52.576Z,2.00
2022-08-12T07:25:57.890Z,2.20
2022-08-12T07:26:52.546Z,2.40
2022-08-12T07:27:52.539Z,2.60
2022-08-12T07:28:52.579Z,2.20
2022-08-12T07:30:02.510Z,2.50
2022-08-12T07:30:52.501Z,2.40
2022-08-12T07:31:53.297Z,2.30
2022-08-12T07:32:52.502Z,2.20
2022-08-12T07:33:52.469Z,2.40
2022-08-12T07:34:52.460Z,2.30
2022-08-12T07:35:52.462Z,2.00
2022-08-12T07:36:52.437Z,2.50
2022-08-12T07:37:52.428Z,2.30
2022-08-12T07:38:52.432Z,2.40
2022-08-12T07:39:59.587Z,2.60
2022-08-12T07:40:52.400Z,2.40
2022-08-12T07:41:52.384Z,2.40
2022-08-12T07:42:52.380Z,2.50
2022-08-12T07:43:52.370Z,2.70
2022-08-12T07:44:52.356Z,2.20
2022-08-12T07:45:52.341Z,2.20
2022-08-12T07:46:52.332Z,2.30
2022-08-12T07:47:52.321Z,2.30
2022-08-12T07:48:52.311Z,2.10
2022-08-12T07:50:04.114Z,2.20
2022-08-12T07:50:53.314Z,1.90
2022-08-12T07:51:52.281Z,2.20
2022-08-12T07:52:52.272Z,2.30
2022-08-12T07:54:00.350Z,1.90
2022-08-12T07:54:53.272Z,2.40
2022-08-12T07:55:52.237Z,2.30
2022-08-12T07:56:52.231Z,2.10
2022-08-12T07:57:52.214Z,2.50
2022-08-12T07:58:52.207Z,2.50
2022-08-12T07:59:52.817Z,2.70
2022-08-12T08:00:52.210Z,2.30
2022-08-12T08:01:52.390Z,2.00
2022-08-12T08:02:52.163Z,2.30
2022-08-12T08:03:52.155Z,2.30
2022-08-12T08:04:52.145Z,2.30
2022-08-12T08:05:52.130Z,2.10
2022-08-12T08:06:52.123Z,2.00
2022-08-12T08:07:52.115Z,2.30
2022-08-12T08:08:52.107Z,2.30
2022-08-12T08:09:58.602Z,2.10
2022-08-12T08:10:53.104Z,1.90
2022-08-12T08:11:52.088Z,2.70
2022-08-12T08:12:52.077Z,2.40
2022-08-12T08:13:52.052Z,2.40
2022-08-12T08:14:52.041Z,2.20
2022-08-12T08:16:02.865Z,2.10
2022-08-12T08:16:53.043Z,2.30
2022-08-12T08:17:52.008Z,2.00
2022-08-12T08:18:51.997Z,2.20
2022-08-12T08:20:03.814Z,2.30
2022-08-12T08:20:53.003Z,2.30
2022-08-12T08:21:51.967Z,2.20
2022-08-12T08:22:52.121Z,2.10
2022-08-12T08:23:51.985Z,2.20
2022-08-12T08:24:51.945Z,2.00
2022-08-12T08:25:51.926Z,2.00
2022-08-12T08:26:51.926Z,2.10
2022-08-12T08:27:51.911Z,2.10
2022-08-12T08:28:51.898Z,2.10
2022-08-12T08:29:51.886Z,2.20
2022-08-12T08:30:51.879Z,3.90
2022-08-12T08:31:51.902Z,2.20
2022-08-12T08:32:51.859Z,2.20
2022-08-12T08:34:04.938Z,2.30
2022-08-12T08:34:54.355Z,2.10
2022-08-12T08:35:54.311Z,2.10
2022-08-12T08:36:51.809Z,2.20
2022-08-12T08:37:51.797Z,2.30
2022-08-12T08:38:56.066Z,2.50
2022-08-12T08:39:52.854Z,1.90
2022-08-12T08:40:51.770Z,2.40
2022-08-12T08:42:15.682Z,2.20
2022-08-12T08:42:51.747Z,2.20
2022-08-12T08:43:51.786Z,2.10
2022-08-12T08:44:58.034Z,2.30
2022-08-12T08:45:51.776Z,1.90
2022-08-12T08:46:51.758Z,2.40
2022-08-12T08:47:51.789Z,2.00
2022-08-12T08:48:53.712Z,2.40
2022-08-12T08:49:51.780Z,1.90
2022-08-12T08:51:04.575Z,2.20
2022-08-12T08:51:52.699Z,2.30
2022-08-12T08:52:51.649Z,2.20
2022-08-12T08:53:52.759Z,2.20
2022-08-12T08:54:51.631Z,2.00
2022-08-12T08:56:04.594Z,2.50
2022-08-12T08:56:52.634Z,2.30
2022-08-12T08:57:51.599Z,2.10
2022-08-12T08:58:52.133Z,2.20
2022-08-12T08:59:51.815Z,2.40
2022-08-12T09:00:51.569Z,2.20
2022-08-12T09:01:51.691Z,2.40
2022-08-12T09:02:59.058Z,2.30
2022-08-12T09:05:08.253Z,2.00
2022-08-12T09:05:11.740Z,2.20
2022-08-12T09:06:02.966Z,2.30
2022-08-12T09:06:53.758Z,2.20
2022-08-12T09:08:52.514Z,2.10
2022-08-12T09:10:59.186Z,2.30
2022-08-12T09:12:54.803Z,2.30
2022-08-12T09:14:53.434Z,2.20
2022-08-12T09:15:56.139Z,2.30
2022-08-12T09:16:52.463Z,2.10
2022-08-12T09:17:51.406Z,2.20
2022-08-12T09:18:52.264Z,2.00
2022-08-12T09:19:57.278Z,2.70
2022-08-12T09:20:51.379Z,2.10
2022-08-12T09:21:54.208Z,2.30
2022-08-12T09:22:51.594Z,2.50
2022-08-12T09:23:58.907Z,2.30
2022-08-12T09:24:52.369Z,2.30
2022-08-12T09:25:51.331Z,2.10
2022-08-12T09:26:51.331Z,2.20
2022-08-12T09:28:52.829Z,2.20
2022-08-12T09:30:11.454Z,2.20
2022-08-12T09:30:52.305Z,2.10
2022-08-12T09:32:02.802Z,2.00
2022-08-12T09:33:05.081Z,2.20
2022-08-12T09:34:28.502Z,2.20
2022-08-12T09:34:51.263Z,2.20
2022-08-12T09:36:02.946Z,2.20
2022-08-12T09:37:00.103Z,2.20
2022-08-12T09:37:55.369Z,2.10
2022-08-12T09:39:00.019Z,2.00
2022-08-12T09:40:01.443Z,2.40
2022-08-12T09:40:57.114Z,2.60
2022-08-12T09:42:34.502Z,2.40
2022-08-12T09:43:16.093Z,2.20
2022-08-12T09:43:53.858Z,1.90
2022-08-12T09:45:18.009Z,2.30
2022-08-12T09:46:12.008Z,2.20
2022-08-12T09:46:52.186Z,2.30
2022-08-12T09:47:59.254Z,2.20
2022-08-12T09:48:56.180Z,2.00
2022-08-12T09:49:57.872Z,2.40
2022-08-12T09:50:55.230Z,2.20
2022-08-12T09:51:51.073Z,2.40
2022-08-12T09:52:54.339Z,2.20
2022-08-12T09:54:06.011Z,2.10
2022-08-12T09:54:56.297Z,2.20
2022-08-12T09:56:03.726Z,2.00
2022-08-12T09:57:00.468Z,2.10
2022-08-12T09:58:46.097Z,2.40
2022-08-12T09:59:00.225Z,2.00
2022-08-12T10:00:17.147Z,2.60
2022-08-12T10:00:52.177Z,2.10
2022-08-12T10:02:42.782Z,2.30
2022-08-12T10:02:52.002Z,2.40
2022-08-12T10:04:03.428Z,2.40
2022-08-12T10:04:52.159Z,2.10
2022-08-12T10:06:20.440Z,2.50
2022-08-12T10:06:55.432Z,2.10
2022-08-12T10:07:50.919Z,2.00
2022-08-12T10:08:52.648Z,2.30
2022-08-12T10:09:58.455Z,2.20
2022-08-12T10:10:51.915Z,2.30
2022-08-12T10:12:10.490Z,2.30
2022-08-12T10:13:06.612Z,2.40
2022-08-12T10:13:51.890Z,2.00
2022-08-12T10:14:53.981Z,1.90
2022-08-12T10:16:02.341Z,2.40
2022-08-12T10:16:50.833Z,2.40
2022-08-12T10:17:56.951Z,2.00
2022-08-12T10:18:52.870Z,2.00
2022-08-12T10:19:52.484Z,2.20
2022-08-12T10:20:50.986Z,2.40
2022-08-12T10:21:56.884Z,2.00
2022-08-12T10:22:51.204Z,2.10
2022-08-12T10:23:51.460Z,2.10
2022-08-12T10:24:53.337Z,2.20
2022-08-12T10:26:34.326Z,2.10
2022-08-12T10:26:50.736Z,2.20
2022-08-12T10:28:03.518Z,2.20
2022-08-12T10:29:01.960Z,2.20
2022-08-12T10:30:02.858Z,2.00
2022-08-12T10:30:58.105Z,2.00
2022-08-12T10:32:20.654Z,2.10
2022-08-12T10:32:56.945Z,2.30
2022-08-12T10:34:05.005Z,2.20
2022-08-12T10:34:53.208Z,2.10
2022-08-12T10:35:52.674Z,2.00
2022-08-12T10:36:51.878Z,2.00
2022-08-12T10:38:37.713Z,2.00
2022-08-12T10:38:50.628Z,2.00
2022-08-12T10:40:00.760Z,2.20
2022-08-12T10:40:51.685Z,2.00
2022-08-12T10:41:57.063Z,2.60
2022-08-12T10:42:50.595Z,2.00
2022-08-12T10:43:54.942Z,3.30
2022-08-12T10:44:50.849Z,1.90
2022-08-12T10:45:50.563Z,2.20
2022-08-12T10:46:50.555Z,2.20
2022-08-12T10:48:20.643Z,2.20
2022-08-12T10:48:58.073Z,2.20
2022-08-12T10:50:03.314Z,2.00
2022-08-12T10:51:00.321Z,2.10
2022-08-12T10:52:33.070Z,1.90
2022-08-12T10:52:52.381Z,1.90
2022-08-12T10:53:52.656Z,1.90
2022-08-12T10:54:50.484Z,2.10
2022-08-12T10:55:56.136Z,1.80
2022-08-12T10:56:51.481Z,1.70
2022-08-12T10:58:15.209Z,1.60
2022-08-12T10:58:50.434Z,1.90
2022-08-12T11:00:31.745Z,2.00
2022-08-12T11:01:25.912Z,1.80
2022-08-12T11:04:20.137Z,2.00
2022-08-12T11:04:22.740Z,1.90
2022-08-12T11:04:24.442Z,1.70
2022-08-12T11:04:52.189Z,2.10
2022-08-12T11:07:07.184Z,2.00
2022-08-12T11:07:07.468Z,1.80
2022-08-12T11:08:38.824Z,2.10
2022-08-12T11:08:51.810Z,2.00
2022-08-12T11:10:01.022Z,2.10
2022-08-12T11:10:50.595Z,1.90
2022-08-12T11:12:35.136Z,1.80
2022-08-12T11:12:59.175Z,1.60
2022-08-12T11:13:50.300Z,1.70
2022-08-12T11:14:51.386Z,1.70
2022-08-12T11:16:03.659Z,1.80
2022-08-12T11:17:34.981Z,1.70
2022-08-12T11:17:55.623Z,1.80
2022-08-12T11:18:55.271Z,1.90
2022-08-12T11:19:50.346Z,1.60
2022-08-12T11:20:52.209Z,1.60
2022-08-12T11:21:58.352Z,1.80
2022-08-12T11:22:58.754Z,1.60
2022-08-12T11:23:53.535Z,1.60
2022-08-12T11:24:51.644Z,1.80
2022-08-12T11:25:58.246Z,1.80
2022-08-12T11:26:51.237Z,1.80
2022-08-12T11:27:51.162Z,1.70
2022-08-12T11:28:59.375Z,1.80
2022-08-12T11:30:03.704Z,1.70
2022-08-12T11:30:52.027Z,1.70
2022-08-12T11:32:02.060Z,1.90
2022-08-12T11:32:51.137Z,1.60
2022-08-12T11:34:06.421Z,1.60
2022-08-12T11:34:54.622Z,1.60
2022-08-12T11:35:50.689Z,1.70
2022-08-12T11:36:53.419Z,1.50
2022-08-12T11:37:59.260Z,1.70
2022-08-12T11:38:51.463Z,1.60
2022-08-12T11:40:51.033Z,1.60
2022-08-12T11:41:50.002Z,1.80
2022-08-12T11:42:50.218Z,1.70
2022-08-12T11:43:58.862Z,1.60
2022-08-12T11:44:51.145Z,1.70
2022-08-12T11:45:53.354Z,1.80
2022-08-12T11:46:53.310Z,1.70
2022-08-12T11:47:50.120Z,1.70
2022-08-12T11:48:51.074Z,1.50
2022-08-12T11:49:51.999Z,1.60
2022-08-12T11:50:50.016Z,1.60
2022-08-12T11:51:57.498Z,1.70
2022-08-12T11:52:55.257Z,1.90
2022-08-12T11:53:58.257Z,1.70
2022-08-12T11:54:50.935Z,1.80
2022-08-12T11:55:49.879Z,1.80
2022-08-12T11:56:59.431Z,1.80
2022-08-12T11:58:07.613Z,1.80
2022-08-12T12:01:57.831Z,1.60
2022-08-12T12:02:00.732Z,1.80
2022-08-12T12:02:49.857Z,1.70
2022-08-12T12:03:49.866Z,1.90
2022-08-12T12:04:52.622Z,1.60
2022-08-12T12:05:49.848Z,1.80
2022-08-12T12:06:53.140Z,1.80
2022-08-12T12:08:37.446Z,2.00
2022-08-12T12:08:52.834Z,1.80
2022-08-12T12:09:53.589Z,1.70
2022-08-12T12:10:49.761Z,1.60
2022-08-12T12:11:49.751Z,1.90
2022-08-12T12:12:50.691Z,1.50
2022-08-12T12:14:07.271Z,1.50
2022-08-12T12:14:54.175Z,1.70
2022-08-12T12:15:49.703Z,1.80
2022-08-12T12:16:50.018Z,1.70
2022-08-12T12:17:49.687Z,1.70
2022-08-12T12:18:50.736Z,1.60
2022-08-12T12:19:49.690Z,1.70
2022-08-12T12:20:49.666Z,1.60
2022-08-12T12:21:49.754Z,1.70
2022-08-12T12:22:49.648Z,1.90
2022-08-12T12:23:49.642Z,1.70
2022-08-12T12:24:49.627Z,1.70
2022-08-12T12:26:06.812Z,1.90
2022-08-12T12:26:59.711Z,1.70
2022-08-12T12:28:05.863Z,1.80
2022-08-12T12:28:54.570Z,1.80
2022-08-12T12:30:19.469Z,1.60
2022-08-12T12:30:54.852Z,1.70
2022-08-12T12:32:09.876Z,1.80
2022-08-12T12:32:53.530Z,1.70
2022-08-12T12:33:58.262Z,1.80
2022-08-12T12:35:18.179Z,1.90
2022-08-12T12:36:18.497Z,1.90
2022-08-12T12:36:54.803Z,2.00
2022-08-12T12:38:03.806Z,1.80
2022-08-12T12:38:50.531Z,1.60
2022-08-12T12:39:55.139Z,1.80
2022-08-12T12:40:50.731Z,1.80
2022-08-12T12:42:45.037Z,1.60
2022-08-12T12:42:54.372Z,2.10
2022-08-12T12:44:04.155Z,1.80
2022-08-12T12:44:53.391Z,1.80
2022-08-12T12:45:49.445Z,1.70
2022-08-12T12:46:49.833Z,1.70
2022-08-12T12:47:49.431Z,1.80
2022-08-12T12:48:49.418Z,2.00
2022-08-12T12:49:53.661Z,1.80
2022-08-12T12:50:51.749Z,1.70
2022-08-12T12:52:18.661Z,2.00
2022-08-12T12:52:50.416Z,1.90
2022-08-12T12:54:07.731Z,1.80
2022-08-12T12:54:50.391Z,1.60
2022-08-12T12:55:49.364Z,1.80
2022-08-12T12:56:49.343Z,1.80
2022-08-12T12:57:59.345Z,2.10
2022-08-12T12:58:50.353Z,1.70
2022-08-12T12:59:56.186Z,1.60
2022-08-12T13:00:51.186Z,1.70
2022-08-12T13:01:50.260Z,1.70
2022-08-12T13:02:53.724Z,1.90
2022-08-12T13:03:49.697Z,1.60
2022-08-12T13:04:49.300Z,1.70
2022-08-12T13:05:53.938Z,1.70
2022-08-12T13:06:49.255Z,1.70
2022-08-12T13:07:55.107Z,1.60
2022-08-12T13:08:50.313Z,1.70
2022-08-12T13:09:49.233Z,1.80
2022-08-12T13:10:50.475Z,1.80
2022-08-12T13:11:53.248Z,1.60
2022-08-12T13:12:49.203Z,1.70
2022-08-12T13:14:08.995Z,1.80
2022-08-12T13:14:49.233Z,1.70
2022-08-12T13:15:49.232Z,1.80
2022-08-12T13:16:49.168Z,2.10
2022-08-12T13:18:02.486Z,1.80
2022-08-12T13:18:49.150Z,1.70
2022-08-12T13:19:49.878Z,1.60
2022-08-12T13:20:49.131Z,1.90
2022-08-12T13:21:50.174Z,1.60
2022-08-12T13:22:49.120Z,1.70
2022-08-12T13:23:49.117Z,1.50
2022-08-12T13:24:54.507Z,1.60
2022-08-12T13:25:50.115Z,1.70
2022-08-12T13:26:49.133Z,1.70
2022-08-12T13:27:49.066Z,1.80